createdAt,value
2018-05-11T00:04:18.493Z,11.05
2018-05-11T00:10:13.483Z,11.63
2018-05-11T00:16:08.491Z,9.48
2018-05-11T00:22:03.514Z,14.47
2018-05-11T00:27:58.468Z,15.58
2018-05-11T00:33:53.500Z,12.9
2018-05-11T00:39:48.497Z,15.1
2018-05-11T00:45:43.510Z,13.97
2018-05-11T00:51:38.477Z,18.3
2018-05-11T00:57:33.562Z,10.63
2018-05-11T01:03:28.522Z,9.73
2018-05-11T01:09:23.522Z,15.05
2018-05-11T01:15:18.523Z,10.14
2018-05-11T01:21:13.560Z,11.33
2018-05-11T01:27:08.542Z,14.73
2018-05-11T01:33:03.517Z,10.89
2018-05-11T01:38:58.480Z,11.36
2018-05-11T01:44:53.549Z,12.19
2018-05-11T01:50:48.518Z,12.13
2018-05-11T01:56:43.526Z,13.07
2018-05-11T02:02:38.524Z,8.85
2018-05-11T02:08:33.520Z,11.33
2018-05-11T02:14:28.561Z,12.28
2018-05-11T02:20:23.523Z,10.61
2018-05-11T02:26:18.501Z,11.77
2018-05-11T02:32:13.535Z,13.16
2018-05-11T02:38:08.551Z,9.46
2018-05-11T02:44:03.512Z,9.61
2018-05-11T02:49:58.513Z,12.61
2018-05-11T02:55:53.541Z,11.07
2018-05-11T03:01:48.502Z,11.65
2018-05-11T03:07:43.605Z,11.21
2018-05-11T03:13:38.592Z,13.86
2018-05-11T03:19:33.506Z,16.25
2018-05-11T03:25:28.551Z,17.97
2018-05-11T03:31:23.524Z,16.8
2018-05-11T03:37:18.535Z,21.39
2018-05-11T03:43:13.515Z,18.67
2018-05-11T03:49:08.602Z,20.56
2018-05-11T03:55:03.548Z,18.18
2018-05-11T04:00:58.564Z,22.69
2018-05-11T04:06:53.586Z,15.22
2018-05-11T04:12:48.551Z,15.84
2018-05-11T04:18:43.575Z,13.98
2018-05-11T04:24:38.601Z,14.03
2018-05-11T04:30:33.581Z,12.48
2018-05-11T04:36:28.616Z,14.88
2018-05-11T04:42:23.611Z,12.27
2018-05-11T04:48:18.547Z,13.21
2018-05-11T04:54:13.572Z,13.93
2018-05-11T05:00:08.677Z,12.29
2018-05-11T05:06:03.573Z,9.4
2018-05-11T05:11:58.569Z,11.92
2018-05-11T05:17:53.558Z,12.23
2018-05-11T05:23:48.573Z,15.83
2018-05-11T05:29:43.558Z,12.73
2018-05-11T05:35:38.604Z,12.48
2018-05-11T05:41:33.584Z,16.65
2018-05-11T05:47:28.542Z,16.17
2018-05-11T05:53:23.585Z,12.82
2018-05-11T05:59:18.574Z,61.46
2018-05-11T06:05:13.592Z,60.3
2018-05-11T06:11:08.604Z,58.5
2018-05-11T06:17:03.595Z,46.86
2018-05-11T06:22:58.574Z,35.12
2018-05-11T06:28:53.584Z,29.57
2018-05-11T06:34:48.633Z,32.72
2018-05-11T06:40:43.636Z,27.01
2018-05-11T06:46:38.631Z,27.71
2018-05-11T06:52:33.638Z,33.29
2018-05-11T06:58:28.601Z,25.5
2018-05-11T07:04:23.699Z,21
2018-05-11T07:10:18.580Z,24.03
2018-05-11T07:16:13.600Z,29.75
2018-05-11T07:22:08.629Z,24.62
2018-05-11T07:28:03.592Z,25.06
2018-05-11T07:33:58.597Z,23.01
2018-05-11T07:39:53.585Z,26.23
2018-05-11T07:45:48.596Z,25.44
2018-05-11T07:51:43.604Z,20
2018-05-11T07:57:38.583Z,21.47
2018-05-11T08:03:33.578Z,21.41
2018-05-11T08:09:28.591Z,20.37
2018-05-11T08:15:23.644Z,21.97
2018-05-11T08:21:18.637Z,18.54
2018-05-11T08:27:13.586Z,20.34
2018-05-11T08:33:08.608Z,21.4
2018-05-11T08:39:03.597Z,20.32
2018-05-11T08:44:59.174Z,22.48
2018-05-11T08:50:53.636Z,18.7
2018-05-11T08:56:48.570Z,23.58
2018-05-11T09:02:43.661Z,17.69
2018-05-11T09:08:38.688Z,22.87
2018-05-11T09:14:33.625Z,20
2018-05-11T09:20:28.592Z,20.23
2018-05-11T09:26:23.628Z,19.36
2018-05-11T09:32:18.673Z,18.2
2018-05-11T09:38:13.622Z,18.23
2018-05-11T09:44:09.036Z,18.61
2018-05-11T09:50:03.707Z,17.79
2018-05-11T09:55:58.630Z,17.68
2018-05-11T10:01:53.759Z,19.43
2018-05-11T10:07:48.745Z,17.75
2018-05-11T10:13:43.644Z,19.02
2018-05-11T10:19:38.628Z,18.73
2018-05-11T10:25:33.647Z,18.8
2018-05-11T10:31:28.614Z,16.75
2018-05-11T10:37:23.637Z,19.1
2018-05-11T10:43:18.719Z,15.2
2018-05-11T10:49:13.691Z,18.26
2018-05-11T10:55:08.652Z,17.61
2018-05-11T11:01:03.642Z,17.19
2018-05-11T11:06:58.701Z,18.67
2018-05-11T11:12:53.632Z,20.54
2018-05-11T11:18:48.657Z,20.59
2018-05-11T11:24:43.654Z,18.2
2018-05-11T11:30:38.647Z,13.19
2018-05-11T11:36:33.724Z,19.21
2018-05-11T11:42:28.652Z,14.91
2018-05-11T11:48:23.667Z,13.85
2018-05-11T11:54:18.655Z,15.28
2018-05-11T12:00:13.680Z,13.22
2018-05-11T12:06:08.662Z,13.96
2018-05-11T12:12:03.659Z,12.13
2018-05-11T12:17:58.646Z,13.26
2018-05-11T12:23:53.682Z,13.67
2018-05-11T12:29:48.685Z,13.82
2018-05-11T12:35:43.649Z,13.46
2018-05-11T12:41:38.677Z,13.43
2018-05-11T12:47:33.718Z,10.91
2018-05-11T12:53:28.690Z,11.82
2018-05-11T12:59:23.676Z,10.42
2018-05-11T13:05:18.671Z,13.68
2018-05-11T13:11:13.693Z,9.69
2018-05-11T13:17:08.690Z,12.33
2018-05-11T13:23:03.733Z,12.17
2018-05-11T13:28:58.690Z,9.98
2018-05-11T13:34:53.724Z,9.4
2018-05-11T13:40:48.707Z,9.95
2018-05-11T13:46:43.679Z,10.45
2018-05-11T13:52:38.700Z,10.54
2018-05-11T13:58:33.690Z,8.66
2018-05-11T14:04:28.719Z,7.43
2018-05-11T14:10:23.793Z,8.33
2018-05-11T14:16:18.735Z,8.76
2018-05-11T14:22:13.726Z,8.53
2018-05-11T14:28:08.736Z,9.1
2018-05-11T14:34:03.748Z,6.53
2018-05-11T14:39:58.722Z,6.78
2018-05-11T14:45:53.700Z,10.33
2018-05-11T14:51:48.739Z,6.73
2018-05-11T14:57:43.775Z,6.9
2018-05-11T15:03:38.736Z,10.99
2018-05-11T15:09:33.726Z,9.91
2018-05-11T15:15:28.816Z,13.55
2018-05-11T15:21:23.795Z,11.56
2018-05-11T15:27:18.782Z,9.54
2018-05-11T15:33:13.796Z,10.37
2018-05-11T15:39:08.730Z,9.02
2018-05-11T15:45:03.767Z,9.18
2018-05-11T15:50:58.735Z,10.33
2018-05-11T15:56:53.768Z,10.01
2018-05-11T16:02:48.733Z,10.43
2018-05-11T16:08:43.759Z,12.51
2018-05-11T16:14:38.769Z,9.18
2018-05-11T16:20:34.946Z,10.07
2018-05-11T16:26:28.749Z,8.91
2018-05-11T16:32:23.796Z,12.45
2018-05-11T16:38:18.772Z,9.74
2018-05-11T16:44:13.800Z,10.75
2018-05-11T16:50:08.826Z,9.74
2018-05-11T16:56:03.843Z,10.33
2018-05-11T17:01:59.516Z,12.16
2018-05-11T17:07:53.823Z,8.43
2018-05-11T17:13:48.857Z,11.14
2018-05-11T17:19:43.803Z,9.54
2018-05-11T17:25:38.783Z,15.73
2018-05-11T17:31:33.793Z,11.96
2018-05-11T17:37:28.823Z,10.43
2018-05-11T17:43:23.800Z,13.32
2018-05-11T17:49:18.799Z,12.88
2018-05-11T17:55:13.789Z,12.5
2018-05-11T18:01:08.816Z,12.21
2018-05-11T18:07:03.804Z,13.72
2018-05-11T18:12:58.864Z,16.24
2018-05-11T18:18:53.889Z,17.64
2018-05-11T18:24:48.883Z,20.19
2018-05-11T18:30:43.809Z,15.74
2018-05-11T18:36:38.833Z,17.92
2018-05-11T18:42:33.836Z,11.97
2018-05-11T18:48:28.872Z,15.15
2018-05-11T18:54:24.215Z,14.14
2018-05-11T19:00:18.816Z,20.98
2018-05-11T19:06:13.839Z,18.28
2018-05-11T19:12:08.847Z,26.17
2018-05-11T19:18:03.850Z,15.43
2018-05-11T19:23:58.856Z,15.89
2018-05-11T19:29:53.863Z,15.75
2018-05-11T19:35:48.855Z,14.65
2018-05-11T19:41:43.831Z,17.37
2018-05-11T19:47:38.840Z,18.1
2018-05-11T19:53:33.915Z,18.11
2018-05-11T19:59:28.834Z,18.78
2018-05-11T20:05:23.889Z,18.05
2018-05-11T20:11:18.860Z,19.3
2018-05-11T20:17:13.824Z,20.52
2018-05-11T20:23:08.872Z,18.32
2018-05-11T20:29:03.828Z,24.17
2018-05-11T20:34:58.883Z,30.19
2018-05-11T20:40:53.860Z,15.79
2018-05-11T20:46:48.877Z,21.05
2018-05-11T20:52:43.858Z,15
2018-05-11T20:58:38.917Z,16.12
2018-05-11T21:04:33.834Z,15.36
2018-05-11T21:10:28.884Z,15.21
2018-05-11T21:16:23.842Z,14.68
2018-05-11T21:22:18.854Z,15.61
2018-05-11T21:28:13.857Z,12.78
2018-05-11T21:34:08.927Z,14.75
2018-05-11T21:40:03.850Z,14.86
2018-05-11T21:45:58.843Z,12.08
2018-05-11T21:51:53.884Z,18.49
2018-05-11T21:57:48.836Z,13.87
2018-05-11T22:03:43.837Z,18.28
2018-05-11T22:09:38.873Z,19.56
2018-05-11T22:15:33.818Z,22.71
2018-05-11T22:21:28.848Z,25.24
2018-05-11T22:27:23.836Z,20.64
2018-05-11T22:33:18.833Z,23.18
2018-05-11T22:39:13.881Z,19.79
2018-05-11T22:45:08.858Z,12.39
2018-05-11T22:51:03.860Z,15.41
2018-05-11T22:56:58.874Z,13.91
2018-05-11T23:02:53.866Z,15.67
2018-05-11T23:08:48.873Z,16.92
2018-05-11T23:14:43.863Z,16.91
2018-05-11T23:20:38.887Z,12.65
2018-05-11T23:26:33.857Z,14.44
2018-05-11T23:32:28.885Z,14.38
2018-05-11T23:38:23.851Z,17.1
2018-05-11T23:44:18.854Z,14.48
2018-05-11T23:50:13.847Z,12.44
2018-05-11T23:56:08.858Z,13.79
